Time;durP1;ratioP1;P1;durP2;ratioP2;P2;SDS_P1;SDS_P2;PMS_P1;PMS_P2;Temp;Humidity;BMP_temperature;BMP_pressure;BME280_temperature;BME280_humidity;BME280_pressure;Samples;Min_cycle;Max_cycle;Signal;HPM_P1;HPM_P2
2022/03/22 00:00:44;;;;;;;24.83;15.50;;;;;;;4.30;59.64;102549.66;5019066;28;20207;-81
2022/03/22 00:03:11;;;;;;;21.37;15.87;;;;;;;4.29;60.54;102544.44;5013145;28;20236;-80
2022/03/22 00:05:40;;;;;;;25.10;15.97;;;;;;;4.27;60.33;102540.94;5018588;28;20310;-80
2022/03/22 00:08:07;;;;;;;19.43;15.57;;;;;;;4.26;60.47;102547.09;5012929;28;20805;-80
2022/03/22 00:10:33;;;;;;;27.13;17.43;;;;;;;4.24;60.49;102546.22;5018463;28;20207;-80
2022/03/22 00:13:00;;;;;;;21.60;15.47;;;;;;;4.23;60.61;102541.81;5013844;28;20233;-80
2022/03/22 00:15:27;;;;;;;23.33;15.77;;;;;;;4.23;60.62;102542.69;5016918;28;20203;-80
2022/03/22 00:17:53;;;;;;;21.40;15.57;;;;;;;4.21;60.30;102541.84;5016756;28;20207;-80
2022/03/22 00:20:20;;;;;;;19.37;14.47;;;;;;;4.19;60.69;102541.84;5004569;28;20207;-81
2022/03/22 00:22:48;;;;;;;19.00;14.53;;;;;;;4.17;60.71;102540.97;5018365;28;20239;-80
2022/03/22 00:25:16;;;;;;;18.87;14.23;;;;;;;4.13;60.64;102548.91;5011952;28;20214;-81
2022/03/22 00:27:53;;;;;;;20.97;15.23;;;;;;;4.07;60.19;102546.34;5003279;28;20289;-81
2022/03/22 00:30:21;;;;;;;21.07;14.90;;;;;;;4.02;60.75;102542.84;5005528;28;20207;-81
2022/03/22 00:32:52;;;;;;;22.73;16.20;;;;;;;3.97;60.43;102545.50;5010529;28;20224;-80
2022/03/22 00:35:18;;;;;;;22.23;15.53;;;;;;;3.93;61.23;102541.16;5021078;28;20212;-82
2022/03/22 00:37:49;;;;;;;20.67;14.37;;;;;;;3.90;60.82;102548.19;5010991;28;20207;-80
2022/03/22 00:40:16;;;;;;;21.47;15.37;;;;;;;3.88;60.89;102542.94;5003903;28;20310;-81
2022/03/22 00:42:46;;;;;;;18.23;14.03;;;;;;;3.87;61.78;102540.28;5014606;28;20522;-80
2022/03/22 00:45:15;;;;;;;25.53;15.30;;;;;;;3.84;61.44;102542.06;5017582;28;20235;-81
2022/03/22 00:47:43;;;;;;;19.93;14.93;;;;;;;3.81;61.65;102546.47;5011815;28;20228;-80
2022/03/22 00:50:10;;;;;;;19.17;13.97;;;;;;;3.75;61.52;102547.41;4999865;28;20207;-80
2022/03/22 00:52:36;;;;;;;19.20;13.80;;;;;;;3.70;61.60;102543.03;5001472;28;20239;-81
2022/03/22 00:55:06;;;;;;;20.20;14.43;;;;;;;3.66;61.47;102549.19;5009205;28;20215;-80
2022/03/22 00:57:32;;;;;;;19.33;14.33;;;;;;;3.61;61.23;102543.91;5016444;28;20261;-81
2022/03/22 01:00:08;;;;;;;24.13;15.60;;;;;;;3.60;61.68;102543.94;5015546;28;20211;-80
2022/03/22 01:02:35;;;;;;;22.27;15.43;;;;;;;3.59;61.65;102544.81;5003766;28;20693;-81
2022/03/22 01:05:04;;;;;;;22.27;14.70;;;;;;;3.58;61.97;102537.81;5009412;28;20226;-80
2022/03/22 01:07:33;;;;;;;22.73;15.80;;;;;;;3.57;62.19;102549.25;5024817;28;20198;-81
2022/03/22 01:10:00;;;;;;;28.23;15.53;;;;;;;3.57;62.83;102549.25;5019946;28;20261;-80
2022/03/22 01:12:29;;;;;;;21.10;15.17;;;;;;;3.54;62.96;102544.84;5009515;28;20294;-80
2022/03/22 01:14:56;;;;;;;22.47;15.77;;;;;;;3.52;62.90;102543.09;5018495;28;20272;-80
2022/03/22 01:17:22;;;;;;;22.93;15.13;;;;;;;3.49;63.16;102536.97;5009733;28;20212;-81
2022/03/22 01:19:49;;;;;;;25.53;16.63;;;;;;;3.46;63.43;102541.34;4999115;28;20207;-80
2022/03/22 01:22:16;;;;;;;21.53;15.57;;;;;;;3.45;62.84;102535.22;5014283;28;20222;-80
2022/03/22 01:24:43;;;;;;;29.60;16.73;;;;;;;3.44;63.09;102532.56;5009879;28;20302;-81
2022/03/22 01:27:10;;;;;;;27.27;16.43;;;;;;;3.43;63.30;102529.06;4999578;28;20290;-80
2022/03/22 01:29:39;;;;;;;28.30;17.70;;;;;;;3.43;63.64;102531.69;5013141;28;20740;-80
2022/03/22 01:32:06;;;;;;;28.47;17.70;;;;;;;3.41;64.00;102525.56;5005239;28;20322;-80
2022/03/22 01:34:33;;;;;;;26.33;17.67;;;;;;;3.39;63.44;102527.34;5014104;28;20207;-80
2022/03/22 01:36:59;;;;;;;28.13;17.40;;;;;;;3.37;63.62;102523.84;5023922;28;20215;-81
2022/03/22 01:39:26;;;;;;;23.10;16.77;;;;;;;3.36;63.51;102527.38;5026839;28;20199;-80
2022/03/22 01:41:52;;;;;;;20.00;14.23;;;;;;;3.32;63.07;102524.72;5019225;28;20226;-81
2022/03/22 01:44:19;;;;;;;18.70;14.50;;;;;;;3.24;63.50;102531.78;5026302;28;20229;-80
2022/03/22 01:46:48;;;;;;;23.30;15.80;;;;;;;3.14;63.16;102530.94;5011925;28;20294;-83
2022/03/22 01:49:14;;;;;;;24.10;15.43;;;;;;;3.08;63.91;102528.31;5008480;28;20222;-82
2022/03/22 01:51:43;;;;;;;21.90;16.10;;;;;;;3.04;64.22;102529.22;5009586;28;20254;-82
2022/03/22 01:54:13;;;;;;;25.10;16.03;;;;;;;3.02;64.65;102523.09;5000463;28;20243;-82
2022/03/22 01:56:39;;;;;;;24.07;15.57;;;;;;;2.99;64.92;102520.44;5009676;28;20209;-82
2022/03/22 01:59:06;;;;;;;27.17;17.73;;;;;;;2.97;64.44;102516.94;5012281;28;20293;-81
2022/03/22 02:07:05;;;;;;;23.67;15.93;;;;;;;2.96;65.00;102512.56;5014516;28;20221;-81
2022/03/22 02:09:31;;;;;;;24.60;17.20;;;;;;;2.95;65.18;102510.81;5012000;28;20222;-81
2022/03/22 02:11:58;;;;;;;26.20;17.17;;;;;;;2.94;65.83;102511.69;5003254;28;20234;-82
2022/03/22 02:14:25;;;;;;;27.80;16.93;;;;;;;2.96;65.38;102507.28;5016638;28;20210;-82
2022/03/22 02:16:51;;;;;;;26.67;17.40;;;;;;;2.94;65.97;102503.78;5014731;28;20882;-82
2022/03/22 02:19:19;;;;;;;29.03;18.07;;;;;;;2.94;65.14;102507.28;5004638;28;20651;-81
2022/03/22 02:21:48;;;;;;;23.57;15.27;;;;;;;2.92;65.57;102510.81;5010150;28;20596;-82
2022/03/22 02:24:16;;;;;;;24.43;16.73;;;;;;;2.90;65.30;102504.66;5005722;28;20215;-81
2022/03/22 02:26:43;;;;;;;22.83;15.30;;;;;;;2.84;65.23;102499.44;4997487;28;20211;-81
2022/03/22 02:29:09;;;;;;;21.50;15.43;;;;;;;2.79;65.44;102502.06;4998277;28;20599;-82
2022/03/22 02:31:36;;;;;;;25.07;16.33;;;;;;;2.75;65.13;102497.69;5009397;28;20701;-81
2022/03/22 02:34:04;;;;;;;24.43;15.77;;;;;;;2.71;65.74;102499.44;5004932;28;20692;-81
2022/03/22 02:36:30;;;;;;;23.80;16.00;;;;;;;2.66;65.15;102506.47;5014847;28;20301;-81
2022/03/22 02:38:57;;;;;;;21.07;15.77;;;;;;;2.61;65.02;102499.47;5015923;28;20217;-81
2022/03/22 02:41:26;;;;;;;24.00;15.80;;;;;;;2.56;65.38;102502.09;5016778;28;20230;-81
2022/03/22 02:43:54;;;;;;;24.70;15.57;;;;;;;2.52;65.96;102496.81;5013534;28;20351;-81
2022/03/22 02:46:21;;;;;;;21.67;15.70;;;;;;;2.49;66.29;102502.09;5003083;28;20215;-81
2022/03/22 02:48:47;;;;;;;27.03;17.13;;;;;;;2.47;65.56;102503.84;4998649;28;20236;-81
2022/03/22 02:51:14;;;;;;;24.73;16.43;;;;;;;2.44;66.50;102488.94;5009829;28;20705;-82
2022/03/22 02:53:41;;;;;;;26.83;17.30;;;;;;;2.42;66.09;102496.84;5011613;28;20233;-82
2022/03/22 02:56:07;;;;;;;24.30;17.37;;;;;;;2.41;66.68;102488.94;5000177;28;20396;-82
2022/03/22 02:58:36;;;;;;;22.30;15.80;;;;;;;2.41;66.05;102496.84;5008319;28;20217;-83
2022/03/22 03:01:02;;;;;;;26.17;17.63;;;;;;;2.38;66.56;102491.56;5021590;28;20226;-83
2022/03/22 03:03:29;;;;;;;24.53;16.33;;;;;;;2.38;66.39;102496.84;5024336;28;20622;-83
2022/03/22 03:05:56;;;;;;;24.30;16.90;;;;;;;2.35;66.94;102489.81;5015103;28;20233;-82
2022/03/22 03:08:26;;;;;;;25.63;16.63;;;;;;;2.31;66.83;102488.09;5007687;28;20246;-83
2022/03/22 03:10:53;;;;;;;21.47;15.67;;;;;;;2.27;66.30;102493.34;5012044;28;20220;-83
2022/03/22 03:13:20;;;;;;;21.97;14.93;;;;;;;2.20;66.73;102500.34;5002557;28;20268;-82
2022/03/22 03:15:50;;;;;;;22.73;16.40;;;;;;;2.16;67.03;102506.47;5006697;28;20207;-82
2022/03/22 03:18:17;;;;;;;25.23;16.73;;;;;;;2.14;66.79;102491.59;5014765;28;20200;-82
2022/03/22 03:20:44;;;;;;;24.40;15.93;;;;;;;2.11;67.40;102499.47;5004208;28;20218;-82
2022/03/22 03:23:11;;;;;;;22.67;15.17;;;;;;;2.08;67.09;102498.59;5011575;28;20209;-82
2022/03/22 03:25:37;;;;;;;26.53;16.97;;;;;;;2.05;68.06;102488.06;5009904;28;20218;-82
2022/03/22 03:28:04;;;;;;;26.80;18.37;;;;;;;2.04;67.51;102499.44;5005801;28;20216;-82
2022/03/22 03:30:31;;;;;;;22.77;16.57;;;;;;;2.03;68.18;102495.06;5011126;28;20211;-82
2022/03/22 03:32:59;;;;;;;30.13;17.63;;;;;;;2.02;67.88;102498.56;5015893;28;20278;-82
2022/03/22 03:35:25;;;;;;;28.87;17.23;;;;;;;2.02;68.37;102506.44;5016224;28;20203;-82
2022/03/22 03:37:52;;;;;;;24.67;16.60;;;;;;;2.02;68.29;102498.56;5014787;28;20215;-82
2022/03/22 03:40:18;;;;;;;23.23;16.73;;;;;;;2.01;68.61;102498.56;5015110;28;20245;-82
2022/03/22 03:42:45;;;;;;;24.50;16.60;;;;;;;2.00;68.16;102502.94;5015352;28;20238;-82
2022/03/22 03:47:58;;;;;;;20.50;15.17;;;;;;;1.98;68.21;102509.06;5015167;28;20221;-82
2022/03/22 03:50:26;;;;;;;24.47;16.00;;;;;;;1.98;68.25;102515.19;5013506;28;20583;-82
2022/03/22 03:52:53;;;;;;;26.20;16.70;;;;;;;1.95;68.09;102509.09;5016013;28;20230;-82
2022/03/22 03:55:19;;;;;;;26.60;16.53;;;;;;;1.93;68.38;102501.19;5016655;28;20237;-81
2022/03/22 03:57:46;;;;;;;25.37;16.87;;;;;;;1.90;68.17;102509.06;5015786;28;20207;-81
2022/03/22 04:00:15;;;;;;;28.13;17.63;;;;;;;1.87;68.09;102509.06;5006064;28;20212;-82
2022/03/22 04:02:42;;;;;;;25.83;17.13;;;;;;;1.83;68.65;102512.53;5010305;28;20223;-82
2022/03/22 04:05:11;;;;;;;26.07;16.30;;;;;;;1.79;68.83;102520.44;5013718;28;20302;-82
2022/03/22 04:07:37;;;;;;;22.73;16.10;;;;;;;1.76;68.64;102529.19;5021817;28;20214;-82
2022/03/22 04:10:05;;;;;;;26.30;15.53;;;;;;;1.72;68.70;102524.78;5018028;28;20223;-82
2022/03/22 04:12:33;;;;;;;27.20;17.30;;;;;;;1.66;68.60;102523.00;5021585;28;20692;-82
2022/03/22 04:14:59;;;;;;;23.77;15.40;;;;;;;1.64;68.92;102518.63;5016788;28;20298;-82
2022/03/22 04:17:26;;;;;;;24.10;16.67;;;;;;;1.63;68.85;102530.00;5003728;28;20210;-82
2022/03/22 04:19:53;;;;;;;27.07;16.47;;;;;;;1.58;69.25;102522.13;5008875;28;20210;-82
2022/03/22 04:22:22;;;;;;;24.27;16.63;;;;;;;1.56;68.82;102525.59;4996573;28;20262;-82
2022/03/22 04:24:48;;;;;;;24.07;16.20;;;;;;;1.54;69.24;102524.72;5015576;28;20207;-83
2022/03/22 04:32:43;;;;;;;23.57;16.33;;;;;;;1.48;69.21;102529.94;5014665;28;20253;-83
2022/03/22 04:35:11;;;;;;;24.57;15.50;;;;;;;1.45;69.76;102535.16;5014161;28;20733;-83
2022/03/22 04:37:39;;;;;;;25.63;17.00;;;;;;;1.42;70.09;102536.06;5013490;28;20229;-82
2022/03/22 04:40:07;;;;;;;30.60;16.60;;;;;;;1.39;70.10;102533.41;5003145;28;20229;-82
2022/03/22 04:42:34;;;;;;;27.50;16.37;;;;;;;1.37;70.32;102536.03;5012819;28;20227;-82
2022/03/22 04:45:01;;;;;;;25.87;15.53;;;;;;;1.34;70.17;102529.88;5000439;28;20215;-82
2022/03/22 04:47:29;;;;;;;23.57;14.90;;;;;;;1.29;70.16;102535.09;5006750;28;20209;-83
2022/03/22 04:49:55;;;;;;;22.10;14.33;;;;;;;1.25;70.27;102541.25;5001123;28;20230;-83
2022/03/22 04:57:53;;;;;;;19.63;13.90;;;;;;;1.06;70.09;102547.25;5007514;28;20210;-82
2022/03/22 05:00:20;;;;;;;19.40;13.60;;;;;;;0.99;70.12;102538.44;5012635;28;20237;-83
2022/03/22 05:02:47;;;;;;;21.03;14.13;;;;;;;0.95;69.84;102535.78;5004755;28;20234;-82
2022/03/22 05:05:14;;;;;;;22.47;12.97;;;;;;;0.93;70.19;102537.53;5015214;28;20300;-82
2022/03/22 05:07:41;;;;;;;25.10;15.60;;;;;;;0.90;70.45;102537.50;5009373;28;20261;-82
2022/03/22 05:10:10;;;;;;;22.40;14.80;;;;;;;0.89;70.67;102547.16;5011531;28;20230;-82
2022/03/22 05:12:40;;;;;;;23.33;15.20;;;;;;;0.88;70.71;102549.75;5011488;28;20223;-82
2022/03/22 05:15:09;;;;;;;22.37;15.13;;;;;;;0.90;71.22;102548.00;5018007;28;20206;-82
2022/03/22 05:17:37;;;;;;;24.13;15.33;;;;;;;0.93;71.18;102558.50;5011451;28;20215;-83
2022/03/22 05:20:06;;;;;;;23.47;15.53;;;;;;;0.94;71.33;102552.41;5010364;28;20298;-82
2022/03/22 05:22:35;;;;;;;26.70;16.10;;;;;;;0.97;71.69;102555.03;5008900;28;20256;-83
2022/03/22 05:25:02;;;;;;;24.53;16.43;;;;;;;0.97;71.67;102562.91;5016538;28;20207;-82
2022/03/22 05:27:30;;;;;;;24.63;16.30;;;;;;;1.00;71.65;102562.94;5005391;28;20201;-82
2022/03/22 05:29:57;;;;;;;23.23;15.23;;;;;;;1.02;71.90;102563.84;5015138;28;20231;-82
2022/03/22 05:32:23;;;;;;;22.33;15.60;;;;;;;1.02;71.87;102567.34;5010993;28;20226;-83
2022/03/22 05:34:50;;;;;;;22.30;15.80;;;;;;;1.02;71.70;102564.72;5017119;28;20211;-82
2022/03/22 05:37:16;;;;;;;27.30;16.27;;;;;;;1.01;72.08;102560.34;5013709;28;20217;-82
2022/03/22 05:39:43;;;;;;;27.23;17.37;;;;;;;1.02;72.18;102553.34;5011629;28;20567;-82
2022/03/22 05:42:09;;;;;;;29.30;17.67;;;;;;;1.04;72.05;102562.09;5010973;28;20245;-81
2022/03/22 05:44:38;;;;;;;25.43;17.67;;;;;;;1.06;72.12;102556.88;4995993;28;20586;-82
2022/03/22 05:47:06;;;;;;;26.43;17.40;;;;;;;1.07;72.31;102567.38;5009676;28;20211;-80
2022/03/22 05:49:33;;;;;;;28.57;17.40;;;;;;;1.07;72.67;102567.38;5005452;28;20262;-82
2022/03/22 05:51:59;;;;;;;27.23;17.87;;;;;;;1.10;72.47;102567.38;5012811;28;20223;-82
2022/03/22 05:54:26;;;;;;;30.97;18.23;;;;;;;1.12;72.41;102572.63;5010675;28;20214;-82
2022/03/22 05:56:52;;;;;;;29.03;17.53;;;;;;;1.16;72.96;102571.78;5020828;28;20217;-82
2022/03/22 05:59:19;;;;;;;26.93;16.63;;;;;;;1.19;72.79;102563.94;5012554;28;20218;-82
2022/03/22 06:01:47;;;;;;;25.33;16.73;;;;;;;1.22;73.03;102571.84;5006338;28;20682;-82
2022/03/22 06:04:14;;;;;;;25.77;17.33;;;;;;;1.26;72.99;102568.34;5011499;28;20207;-82
2022/03/22 06:06:41;;;;;;;25.53;16.87;;;;;;;1.27;73.00;102570.97;5008670;28;20297;-81
2022/03/22 06:09:08;;;;;;;30.97;16.40;;;;;;;1.32;72.91;102569.25;5008062;28;20300;-81
2022/03/22 06:11:35;;;;;;;27.17;17.00;;;;;;;1.36;73.08;102576.28;5023455;28;20222;-82
2022/03/22 06:14:03;;;;;;;25.73;16.77;;;;;;;1.39;73.03;102576.31;5019562;28;20211;-82
2022/03/22 06:16:30;;;;;;;32.63;17.60;;;;;;;1.42;72.99;102574.56;5012756;28;20777;-82
2022/03/22 06:18:58;;;;;;;30.13;17.77;;;;;;;1.45;73.42;102571.94;5014168;28;20282;-82
2022/03/22 06:21:24;;;;;;;31.23;18.07;;;;;;;1.48;73.21;102574.56;5002649;28;20231;-82
2022/03/22 06:23:52;;;;;;;32.07;18.57;;;;;;;1.51;73.58;102574.59;5009322;28;20211;-82
2022/03/22 06:26:18;;;;;;;29.90;18.03;;;;;;;1.53;73.47;102568.50;5013522;28;20289;-81
2022/03/22 06:28:45;;;;;;;34.53;18.13;;;;;;;1.58;73.46;102568.50;5013657;28;20218;-81
2022/03/22 06:31:11;;;;;;;25.87;17.33;;;;;;;1.63;73.43;102577.25;5019490;28;20226;-81
2022/03/22 06:33:38;;;;;;;26.93;16.07;;;;;;;1.68;73.92;102575.53;5010735;28;20214;-81
2022/03/22 06:36:08;;;;;;;28.47;17.33;;;;;;;1.75;73.64;102577.34;5023892;28;20844;-81
2022/03/22 06:38:35;;;;;;;29.17;16.53;;;;;;;1.81;74.24;102581.72;5015858;28;20207;-81
2022/03/22 06:41:01;;;;;;;33.00;18.30;;;;;;;1.86;74.51;102578.25;5014896;28;20311;-82
2022/03/22 06:43:28;;;;;;;27.40;17.20;;;;;;;1.93;74.37;102582.66;5006799;28;20208;-82
2022/03/22 06:45:55;;;;;;;26.83;17.27;;;;;;;2.02;74.06;102581.78;5011948;28;20221;-82
2022/03/22 06:48:22;;;;;;;25.83;16.87;;;;;;;2.11;74.90;102580.94;5010008;28;20294;-82
2022/03/22 06:50:49;;;;;;;24.80;17.70;;;;;;;2.18;74.66;102580.94;5006024;28;20223;-81
2022/03/22 06:53:17;;;;;;;25.93;16.90;;;;;;;2.27;74.90;102574.84;5008093;28;20214;-81
2022/03/22 06:55:44;;;;;;;29.57;17.50;;;;;;;2.37;75.84;102576.59;5003604;28;20785;-81
2022/03/22 06:58:12;;;;;;;23.80;16.17;;;;;;;2.46;75.64;102574.00;5005691;28;20234;-84
2022/03/22 07:00:38;;;;;;;26.20;15.87;;;;;;;2.55;75.20;102570.47;5004093;28;20203;-82
2022/03/22 07:03:05;;;;;;;23.23;14.87;;;;;;;2.65;75.58;102581.00;5005137;28;20765;-81
2022/03/22 07:05:32;;;;;;;22.57;14.10;;;;;;;2.74;75.36;102580.13;5007723;28;20208;-82
2022/03/22 07:08:00;;;;;;;23.07;14.27;;;;;;;2.83;75.04;102582.75;5007895;28;20229;-82
2022/03/22 07:10:31;;;;;;;22.00;14.70;;;;;;;2.93;74.41;102578.34;5003332;28;20708;-82
2022/03/22 07:12:59;;;;;;;20.97;14.90;;;;;;;3.05;74.41;102580.97;5003991;28;20286;-82
2022/03/22 07:15:29;;;;;;;20.63;14.00;;;;;;;3.17;73.29;102586.22;5002820;28;20243;-82
2022/03/22 07:18:00;;;;;;;19.33;12.40;;;;;;;3.30;72.90;102593.22;5005546;28;20299;-82
2022/03/22 07:20:27;;;;;;;20.07;14.87;;;;;;;3.44;73.12;102594.03;5002569;28;20199;-82
2022/03/22 07:22:56;;;;;;;30.30;15.83;;;;;;;3.60;72.67;102588.72;4999456;28;20237;-82
2022/03/22 07:25:23;;;;;;;28.33;14.77;;;;;;;3.76;72.00;102598.34;5001399;28;20646;-82
2022/03/22 07:27:51;;;;;;;22.10;15.50;;;;;;;3.90;72.41;102593.88;5009206;28;20199;-82
2022/03/22 07:30:18;;;;;;;27.03;16.00;;;;;;;4.05;71.63;102609.63;5010577;28;20227;-81
2022/03/22 07:32:46;;;;;;;22.13;15.20;;;;;;;4.19;71.60;102599.84;4999260;28;20240;-81
2022/03/22 07:35:14;;;;;;;22.03;15.07;;;;;;;4.33;71.80;102594.50;4998524;28;20233;-82
2022/03/22 07:37:41;;;;;;;23.93;16.07;;;;;;;4.48;71.58;102590.88;4996367;28;20254;-82
2022/03/22 07:40:10;;;;;;;23.40;15.80;;;;;;;4.64;71.75;102591.66;5000819;28;20207;-82
2022/03/22 07:42:37;;;;;;;30.50;15.67;;;;;;;4.82;71.22;102588.88;5000493;28;20282;-82
2022/03/22 07:45:07;;;;;;;21.00;14.83;;;;;;;5.02;70.65;102596.56;5000941;28;20207;-83
2022/03/22 07:47:34;;;;;;;23.70;14.53;;;;;;;5.25;70.06;102594.59;5003387;28;20203;-83
2022/03/22 07:53:01;;;;;;;18.93;14.20;;;;;;;5.72;68.48;102599.34;5003296;28;20235;-83
2022/03/22 07:55:29;;;;;;;18.97;13.23;;;;;;;6.01;67.34;102595.50;5008255;28;20847;-82
2022/03/22 07:57:56;;;;;;;18.73;12.97;;;;;;;6.26;66.50;102595.13;5004380;28;20297;-83
2022/03/22 08:00:24;;;;;;;22.20;14.03;;;;;;;6.51;64.82;102592.09;5009999;28;20323;-84
2022/03/22 08:02:52;;;;;;;16.67;11.77;;;;;;;6.76;62.70;102595.25;5001121;28;20241;-83
2022/03/22 08:05:18;;;;;;;16.27;12.40;;;;;;;7.01;61.17;102600.97;5013402;28;20209;-82
2022/03/22 08:07:47;;;;;;;17.43;13.33;;;;;;;7.25;59.60;102600.53;5008604;28;20217;-83
2022/03/22 08:10:14;;;;;;;19.67;12.37;;;;;;;7.50;57.92;102591.25;5009449;28;20908;-83
2022/03/22 08:12:41;;;;;;;16.53;13.27;;;;;;;7.76;57.60;102595.13;5009804;28;20277;-82
2022/03/22 08:15:08;;;;;;;16.33;12.40;;;;;;;8.01;56.37;102599.91;5011373;28;20206;-82
2022/03/22 08:17:38;;;;;;;18.63;12.27;;;;;;;8.29;55.76;102593.94;5010329;28;20199;-82
2022/03/22 08:20:06;;;;;;;19.00;12.13;;;;;;;8.56;54.34;102589.81;5005033;28;20206;-82
2022/03/22 08:22:33;;;;;;;15.73;12.53;;;;;;;8.80;53.46;102597.16;5001487;28;20743;-82
2022/03/22 08:24:59;;;;;;;17.13;12.80;;;;;;;9.06;52.34;102591.22;5008429;28;20211;-83
2022/03/22 08:27:26;;;;;;;14.87;12.37;;;;;;;9.31;51.58;102594.97;5004983;28;20247;-82
2022/03/22 08:29:52;;;;;;;16.30;12.60;;;;;;;9.54;50.42;102596.97;5006853;28;20206;-82
2022/03/22 08:32:19;;;;;;;17.03;12.93;;;;;;;9.77;49.87;102587.47;5001562;28;20227;-81
2022/03/22 08:34:47;;;;;;;15.50;12.77;;;;;;;10.00;48.83;102585.00;5002666;28;20597;-81
2022/03/22 08:37:14;;;;;;;17.43;13.00;;;;;;;10.21;48.38;102595.00;4999911;28;20207;-83
2022/03/22 08:39:40;;;;;;;17.57;12.40;;;;;;;10.43;47.58;102590.75;5001202;28;20223;-83
2022/03/22 08:42:07;;;;;;;17.37;13.20;;;;;;;10.62;47.05;102585.72;5003445;28;20231;-83
2022/03/22 08:44:34;;;;;;;17.53;12.70;;;;;;;10.84;46.22;102582.34;4999093;28;20203;-83
2022/03/22 08:47:01;;;;;;;15.73;12.90;;;;;;;11.05;45.51;102586.94;5010783;28;21629;-83
2022/03/22 08:49:27;;;;;;;15.93;13.33;;;;;;;11.26;44.65;102590.66;5005375;28;20212;-83
2022/03/22 08:51:55;;;;;;;16.30;12.33;;;;;;;11.46;43.92;102582.81;5011669;28;20236;-83
2022/03/22 08:54:22;;;;;;;17.57;13.13;;;;;;;11.66;43.14;102582.06;5006624;28;20222;-83
2022/03/22 08:56:48;;;;;;;15.83;12.73;;;;;;;11.85;42.60;102582.28;5005900;28;20264;-83
2022/03/22 08:59:15;;;;;;;17.60;13.13;;;;;;;12.02;41.79;102586.03;5007332;28;20220;-83
2022/03/22 09:01:42;;;;;;;18.30;13.90;;;;;;;12.21;41.48;102577.31;5008060;28;20226;-83
2022/03/22 09:06:51;;;;;;;16.77;13.07;;;;;;;12.52;39.88;102573.38;4995234;28;20826;-83
2022/03/22 09:09:19;;;;;;;18.80;13.90;;;;;;;12.67;39.94;102574.53;5005632;28;20203;-83
2022/03/22 09:11:46;;;;;;;19.40;13.57;;;;;;;12.81;39.56;102572.16;5005190;28;20249;-84
2022/03/22 09:14:12;;;;;;;17.83;13.53;;;;;;;12.99;39.21;102565.13;5005871;28;20198;-83
2022/03/22 09:16:39;;;;;;;13.90;12.47;;;;;;;13.18;38.77;102566.13;5004647;28;20216;-83
2022/03/22 09:19:05;;;;;;;17.07;13.17;;;;;;;13.32;38.78;102561.97;5010174;28;20246;-82
2022/03/22 09:21:32;;;;;;;17.03;14.17;;;;;;;13.47;38.49;102571.97;5009538;28;20238;-83
2022/03/22 09:23:59;;;;;;;18.03;13.73;;;;;;;13.61;37.74;102569.56;5012098;28;20215;-83
2022/03/22 09:26:26;;;;;;;16.13;14.10;;;;;;;13.77;37.95;102561.69;5005939;28;20191;-83
2022/03/22 09:28:53;;;;;;;16.53;13.80;;;;;;;13.89;37.33;102551.25;5013821;28;22139;-82
2022/03/22 09:31:22;;;;;;;17.97;13.97;;;;;;;14.03;37.58;102555.09;5008815;28;20234;-82
2022/03/22 09:33:49;;;;;;;17.10;14.33;;;;;;;14.14;37.03;102547.44;5007816;28;20247;-82
2022/03/22 09:36:16;;;;;;;17.70;13.97;;;;;;;14.27;36.48;102548.56;5008198;28;21067;-83
2022/03/22 09:38:42;;;;;;;18.33;14.23;;;;;;;14.40;36.39;102543.47;5010406;28;20595;-82
2022/03/22 09:41:13;;;;;;;17.47;13.63;;;;;;;14.52;36.00;102548.25;5015892;28;20850;-82
2022/03/22 09:43:46;;;;;;;19.07;14.17;;;;;;;14.63;35.59;102550.41;5011824;28;20673;-82
2022/03/22 09:46:17;;;;;;;18.77;13.93;;;;;;;14.76;35.59;102548.84;5003103;28;20270;-82
2022/03/22 09:48:44;;;;;;;17.30;14.13;;;;;;;14.87;35.31;102541.97;5009447;28;20306;-82
2022/03/22 09:53:54;;;;;;;18.30;14.57;;;;;;;15.12;34.29;102548.75;5002470;28;20753;-82
2022/03/22 09:56:21;;;;;;;15.13;13.10;;;;;;;15.20;34.35;102547.41;5011639;28;20219;-82
2022/03/22 09:58:49;;;;;;;18.53;13.53;;;;;;;15.27;33.45;102546.13;5010103;28;20239;-82
2022/03/22 10:01:15;;;;;;;20.57;13.53;;;;;;;15.31;33.51;102551.34;5006669;28;20243;-83
2022/03/22 10:03:42;;;;;;;21.60;13.57;;;;;;;15.37;33.48;102545.66;5010898;28;20208;-82
2022/03/22 10:06:09;;;;;;;18.97;13.87;;;;;;;15.45;33.51;102546.97;5007487;28;20666;-83
2022/03/22 10:08:37;;;;;;;17.23;14.60;;;;;;;15.54;33.29;102542.94;5006010;28;20300;-82
2022/03/22 10:11:04;;;;;;;15.87;13.30;;;;;;;15.59;33.14;102541.75;5016148;28;20235;-82
2022/03/22 10:13:33;;;;;;;18.90;14.57;;;;;;;15.67;32.67;102541.34;5012160;28;20208;-83
2022/03/22 10:16:06;;;;;;;20.77;14.30;;;;;;;15.78;32.89;102541.59;5003454;28;20207;-82
2022/03/22 10:18:35;;;;;;;19.33;14.17;;;;;;;15.85;31.91;102536.78;5012741;28;20229;-82
2022/03/22 10:21:03;;;;;;;17.17;13.47;;;;;;;15.91;31.83;102529.25;5011164;28;20862;-82
2022/03/22 10:23:32;;;;;;;16.77;12.97;;;;;;;16.01;31.51;102534.94;5012465;28;20548;-82
2022/03/22 10:26:06;;;;;;;16.47;13.30;;;;;;;16.08;31.12;102528.28;5012203;28;20749;-82
2022/03/22 10:28:33;;;;;;;15.47;13.10;;;;;;;16.15;30.64;102526.09;5008883;28;20207;-82
2022/03/22 10:31:00;;;;;;;16.93;13.53;;;;;;;16.21;30.35;102521.25;5006791;28;20629;-82
2022/03/22 10:33:28;;;;;;;13.73;12.23;;;;;;;16.28;30.32;102522.66;5009707;28;20207;-82
2022/03/22 10:35:55;;;;;;;18.70;13.50;;;;;;;16.34;29.88;102529.47;5011441;28;20211;-83
2022/03/22 10:38:23;;;;;;;15.90;13.30;;;;;;;16.37;29.66;102532.00;5010095;28;20206;-81
2022/03/22 10:40:50;;;;;;;18.10;13.20;;;;;;;16.42;29.77;102524.53;5002348;28;20356;-83
2022/03/22 10:43:19;;;;;;;15.60;13.53;;;;;;;16.51;29.89;102523.97;5020224;28;20738;-82
2022/03/22 10:45:48;;;;;;;15.07;13.47;;;;;;;16.53;29.60;102522.06;5005428;28;20237;-83
2022/03/22 10:48:19;;;;;;;15.23;12.63;;;;;;;16.59;29.74;102524.41;5002094;28;20262;-83
2022/03/22 10:50:48;;;;;;;15.77;12.90;;;;;;;16.66;29.65;102517.72;5008891;28;20259;-82
2022/03/22 10:53:16;;;;;;;19.23;12.47;;;;;;;16.72;29.29;102511.13;4997700;28;20924;-82
2022/03/22 10:55:44;;;;;;;22.27;13.87;;;;;;;16.77;29.10;102514.41;5005475;28;20206;-82
2022/03/22 10:58:12;;;;;;;17.87;13.70;;;;;;;16.82;29.16;102517.69;5006062;28;20203;-82
2022/03/22 11:00:42;;;;;;;15.30;12.70;;;;;;;16.89;29.01;102515.50;5004520;28;20206;-82
2022/03/22 11:03:10;;;;;;;14.60;11.83;;;;;;;16.97;28.89;102518.59;5003430;28;20207;-82
2022/03/22 11:05:37;;;;;;;15.47;12.27;;;;;;;17.03;28.21;102515.50;5003523;28;20216;-83
2022/03/22 11:08:05;;;;;;;15.87;12.67;;;;;;;17.05;28.10;102508.22;5002472;28;20698;-82
2022/03/22 11:10:32;;;;;;;14.33;12.20;;;;;;;17.10;27.76;102511.50;5004972;28;20625;-82
2022/03/22 11:13:00;;;;;;;12.90;11.57;;;;;;;17.14;27.71;102507.66;5007472;28;20236;-82
2022/03/22 11:15:30;;;;;;;13.80;12.23;;;;;;;17.19;27.26;102507.38;5002024;28;20203;-82
2022/03/22 11:17:57;;;;;;;14.70;12.70;;;;;;;17.22;27.36;102505.34;5002946;28;20220;-82
2022/03/22 11:20:25;;;;;;;17.47;12.73;;;;;;;17.21;27.35;102497.34;4997442;28;20218;-82
2022/03/22 11:22:55;;;;;;;14.87;12.47;;;;;;;17.21;27.35;102497.34;5005494;28;20231;-82
2022/03/22 11:25:31;;;;;;;14.43;12.93;;;;;;;17.22;27.38;102491.00;5001274;28;20761;-82
2022/03/22 11:27:59;;;;;;;13.70;12.27;;;;;;;17.26;27.68;102492.56;5000594;28;20900;-82
2022/03/22 11:30:28;;;;;;;16.10;12.40;;;;;;;17.30;27.22;102496.81;4999189;28;20198;-82
2022/03/22 11:35:52;;;;;;;17.73;11.60;;;;;;;17.33;26.73;102486.72;4999966;28;20220;-82
2022/03/22 11:38:52;;;;;;;16.50;11.73;;;;;;;17.38;26.26;102483.72;5003555;28;20208;-82
2022/03/22 11:44:28;;;;;;;13.40;10.97;;;;;;;17.45;25.34;102478.81;4967357;28;20211;-80
2022/03/22 11:47:04;;;;;;;14.43;11.40;;;;;;;17.48;25.19;102482.19;4987257;28;20954;-80
2022/03/22 11:49:31;;;;;;;11.67;10.47;;;;;;;17.47;24.83;102475.06;5008148;28;20703;-80